Terminal Aerodrome Forecast
Issued by NWS

Home | Current Version | Previous Version | Text Only | Print | Product List | Glossary On
Versions: 1 2 3 4 5 6 7 8 9 10 11 12 13 14 15 16 17 18 19
870
FTUS43 KGRB 060215 AAA
TAFMTW
TAF AMD
KMTW 060215Z 0602/0624 17009KT 5SM BR OVC007
      TEMPO 0602/0604 5SM BR SCT007 BKN100
     FM061500 16010KT P6SM OVC015
     FM061900 22010G17KT P6SM BKN020
     FM062200 26014G24KT P6SM -SHSN BKN030=

USA.gov is the U.S. government's official web portal to all federal, state and local government web resources and services.